Time;durP1;ratioP1;P1;durP2;ratioP2;P2;SDS_P1;SDS_P2;PMS_P1;PMS_P2;Temp;Humidity;BMP_temperature;BMP_pressure;BME280_temperature;BME280_humidity;BME280_pressure;Samples;Min_cycle;Max_cycle;Signal;HPM_P1;HPM_P2
2022/06/17 00:01:06;;;;;;;5.50;2.50;;;;;;;16.71;54.26;100770.63;110458;1250;21962;-75
2022/06/17 00:03:51;;;;;;;4.90;1.70;;;;;;;16.64;54.32;100772.92;110491;1254;22307;-75
2022/06/17 00:06:34;;;;;;;4.70;2.20;;;;;;;16.58;54.54;100781.30;110544;1251;22038;-76
2022/06/17 00:09:07;;;;;;;3.30;2.30;;;;;;;16.54;54.89;100780.25;110697;1251;21956;-76
2022/06/17 00:11:49;;;;;;;4.60;2.20;;;;;;;16.53;54.99;100781.69;109819;1260;21963;-75
2022/06/17 00:14:33;;;;;;;4.90;1.70;;;;;;;16.51;55.14;100790.09;109858;1257;22181;-75
2022/06/17 00:17:16;;;;;;;3.80;1.70;;;;;;;16.45;55.39;100796.77;109670;1258;23034;-75
2022/06/17 00:19:52;;;;;;;5.00;2.60;;;;;;;16.38;55.48;100796.45;109732;1257;23695;-75
2022/06/17 00:22:25;;;;;;;3.40;1.50;;;;;;;16.33;55.67;100802.64;110009;1257;22612;-76
2022/06/17 00:24:56;;;;;;;3.70;1.70;;;;;;;16.28;55.83;100803.26;109957;1258;23043;-76
2022/06/17 00:27:29;;;;;;;2.30;1.50;;;;;;;16.23;55.93;100805.32;110013;1257;21978;-76
2022/06/17 00:30:20;;;;;;;3.30;1.60;;;;;;;16.19;56.15;100811.61;110029;1251;23824;-76
2022/06/17 00:33:04;;;;;;;5.10;1.50;;;;;;;16.17;56.33;100816.06;110000;1258;23706;-76
2022/06/17 00:35:42;;;;;;;3.00;1.90;;;;;;;16.16;56.52;100818.84;110044;1257;21989;-75
2022/06/17 00:38:20;;;;;;;3.60;1.70;;;;;;;16.14;56.61;100819.40;109781;1257;21984;-76
2022/06/17 00:40:53;;;;;;;3.40;1.60;;;;;;;16.09;56.45;100824.33;110039;1257;21969;-76
2022/06/17 00:43:42;;;;;;;5.60;1.60;;;;;;;16.03;56.58;100829.32;109408;1262;22034;-76
2022/06/17 00:46:37;;;;;;;3.70;1.40;;;;;;;15.99;56.73;100833.54;109582;1263;23652;-76
2022/06/17 00:49:42;;;;;;;3.70;1.70;;;;;;;15.96;56.93;100832.69;109095;1267;21989;-76
2022/06/17 00:52:29;;;;;;;3.80;1.90;;;;;;;15.86;56.57;100833.71;108789;1270;22751;-76
2022/06/17 00:55:30;;;;;;;3.20;1.70;;;;;;;15.77;56.49;100832.27;108859;1270;22006;-75
2022/06/17 00:58:34;;;;;;;3.70;1.50;;;;;;;15.69;56.51;100836.44;108514;1273;22922;-75
2022/06/17 01:01:14;;;;;;;4.00;1.50;;;;;;;15.66;56.69;100842.45;108578;1273;21974;-75
2022/06/17 01:03:58;;;;;;;2.60;1.20;;;;;;;15.71;56.74;100844.87;108651;1273;22360;-75
2022/06/17 01:06:46;;;;;;;3.20;1.30;;;;;;;15.75;56.58;100842.86;108397;1276;23662;-75
2022/06/17 01:13:03;;;;;;;3.10;1.40;;;;;;;15.75;56.06;100844.58;108702;1273;22866;-75
2022/06/17 01:15:44;;;;;;;2.60;1.40;;;;;;;15.72;55.99;100846.98;108411;1273;22012;-75
2022/06/17 01:18:14;;;;;;;9.70;1.90;;;;;;;15.70;55.73;100849.66;108348;1276;23064;-76
2022/06/17 01:20:54;;;;;;;2.50;1.30;;;;;;;15.67;55.66;100854.17;108143;1281;23410;-75
2022/06/17 01:23:42;;;;;;;3.20;1.40;;;;;;;15.66;55.75;100855.16;107983;1282;22092;-75
2022/06/17 01:26:16;;;;;;;4.10;1.90;;;;;;;15.67;55.73;100860.03;108407;1276;21988;-75
2022/06/17 01:28:56;;;;;;;2.30;1.10;;;;;;;15.68;55.65;100866.19;108503;1270;21972;-75
2022/06/17 01:31:25;;;;;;;3.10;1.50;;;;;;;15.68;55.71;100866.19;108599;1273;22440;-76
2022/06/17 01:34:00;;;;;;;2.50;1.20;;;;;;;15.67;55.40;100867.35;108614;1273;22002;-76
2022/06/17 01:36:33;;;;;;;3.50;1.20;;;;;;;15.66;55.28;100873.83;108719;1270;22102;-76
2022/06/17 01:39:13;;;;;;;2.30;1.30;;;;;;;15.65;55.24;100875.04;109098;1263;23630;-75
2022/06/17 01:41:52;;;;;;;3.10;1.40;;;;;;;15.66;55.23;100880.28;109463;1263;21977;-74
2022/06/17 01:44:33;;;;;;;2.50;1.00;;;;;;;15.69;55.23;100880.58;109313;1264;22750;-75
2022/06/17 01:47:21;;;;;;;1.90;1.10;;;;;;;15.71;55.05;100882.66;109279;1264;22121;-75
2022/06/17 01:50:05;;;;;;;1.90;1.10;;;;;;;15.72;55.02;100882.22;109665;1261;21986;-75
2022/06/17 01:52:57;;;;;;;2.30;1.10;;;;;;;15.74;54.98;100883.59;110220;1253;21959;-75
2022/06/17 01:55:44;;;;;;;2.40;1.00;;;;;;;15.71;54.83;100889.17;110561;1250;22878;-75
2022/06/17 01:58:26;;;;;;;1.60;1.00;;;;;;;15.67;54.80;100890.56;110524;1250;21962;-76
2022/06/17 02:01:04;;;;;;;3.00;1.40;;;;;;;15.64;54.65;100887.55;110305;1257;21969;-75
2022/06/17 02:03:54;;;;;;;1.80;1.00;;;;;;;15.59;54.52;100883.55;109280;1264;23583;-75
2022/06/17 02:06:57;;;;;;;2.90;1.00;;;;;;;15.53;54.49;100880.78;109226;1263;22948;-75
2022/06/17 02:09:39;;;;;;;1.70;1.20;;;;;;;15.45;54.67;100880.45;108617;1273;21998;-75
2022/06/17 02:12:15;;;;;;;2.80;0.90;;;;;;;15.42;54.71;100879.95;108643;1273;21989;-75
2022/06/17 02:14:53;;;;;;;2.30;1.50;;;;;;;15.39;54.80;100878.70;108491;1273;21991;-76
2022/06/17 02:17:48;;;;;;;2.30;1.50;;;;;;;15.33;54.69;100883.34;108706;1273;22142;-75
2022/06/17 02:20:40;;;;;;;2.80;1.20;;;;;;;15.27;54.74;100885.34;108765;1273;23056;-75
2022/06/17 02:23:10;;;;;;;5.10;1.90;;;;;;;15.24;54.85;100887.96;109094;1267;22537;-75
2022/06/17 02:25:47;;;;;;;5.10;1.30;;;;;;;15.22;54.82;100890.43;109100;1263;22018;-76
2022/06/17 02:28:29;;;;;;;4.70;1.20;;;;;;;15.20;55.05;100892.95;109464;1263;22021;-75
2022/06/17 02:31:05;;;;;;;4.20;1.30;;;;;;;15.16;55.13;100894.53;109554;1263;21971;-75
2022/06/17 02:33:39;;;;;;;3.20;1.30;;;;;;;15.08;55.03;100894.52;109365;1264;22107;-76
2022/06/17 02:36:27;;;;;;;3.90;1.50;;;;;;;15.01;55.11;100894.16;109372;1263;21998;-75
2022/06/17 02:39:00;;;;;;;7.90;2.00;;;;;;;14.93;55.34;100894.71;109318;1264;22113;-75
2022/06/17 02:41:33;;;;;;;3.50;1.70;;;;;;;14.89;55.45;100897.18;109030;1270;21984;-75
2022/06/17 02:44:19;;;;;;;2.70;1.70;;;;;;;14.85;55.63;100894.13;108530;1273;22042;-76
2022/06/17 02:46:56;;;;;;;3.10;1.50;;;;;;;14.78;55.68;100894.38;108804;1270;22064;-77
2022/06/17 02:49:32;;;;;;;3.40;1.50;;;;;;;14.76;55.74;100893.02;108773;1269;23596;-75
2022/06/17 02:52:18;;;;;;;3.40;1.70;;;;;;;14.73;55.85;100895.73;108764;1263;22379;-75
2022/06/17 02:55:02;;;;;;;5.20;2.20;;;;;;;14.70;55.85;100897.65;109305;1264;22022;-75
2022/06/17 02:57:40;;;;;;;3.40;1.90;;;;;;;14.67;56.10;100898.17;109373;1261;23705;-75
2022/06/17 03:00:21;;;;;;;6.40;2.10;;;;;;;14.65;56.09;100897.64;109712;1259;21979;-75
2022/06/17 03:03:06;;;;;;;3.30;1.70;;;;;;;14.62;56.38;100894.20;110366;1253;22835;-75
2022/06/17 03:05:42;;;;;;;2.90;2.00;;;;;;;14.58;56.33;100893.61;110619;1251;21957;-75
2022/06/17 03:08:34;;;;;;;3.60;2.10;;;;;;;14.54;56.44;100891.85;110018;1257;23150;-75
2022/06/17 03:11:19;;;;;;;4.20;2.10;;;;;;;14.49;56.39;100894.59;109537;1260;24288;-75
2022/06/17 03:14:01;;;;;;;3.40;1.80;;;;;;;14.47;56.60;100893.27;109577;1265;22026;-76
2022/06/17 03:16:34;;;;;;;4.40;1.80;;;;;;;14.49;56.74;100891.23;109242;1264;22001;-75
2022/06/17 03:19:09;;;;;;;4.00;1.90;;;;;;;14.50;56.87;100889.54;109133;1265;23678;-75
2022/06/17 03:21:39;;;;;;;5.20;1.70;;;;;;;14.53;57.15;100891.40;109277;1265;23050;-75
2022/06/17 03:24:25;;;;;;;4.00;1.70;;;;;;;14.56;56.99;100898.98;109159;1267;23002;-76
2022/06/17 03:27:15;;;;;;;3.60;2.00;;;;;;;14.53;56.91;100903.15;108894;1264;24243;-75
2022/06/17 03:29:49;;;;;;;3.20;2.10;;;;;;;14.49;56.84;100908.22;109005;1264;21976;-75
2022/06/17 03:32:31;;;;;;;5.60;2.10;;;;;;;14.45;56.76;100911.73;109343;1260;22838;-76
2022/06/17 03:35:06;;;;;;;7.20;2.80;;;;;;;14.43;57.04;100919.47;109557;1261;23583;-76
2022/06/17 03:38:51;;;;;;;4.30;2.10;;;;;;;14.44;57.16;100924.77;109381;1260;21967;-76
2022/06/17 03:41:55;;;;;;;3.90;2.50;;;;;;;14.45;57.27;100927.98;108345;1279;22001;-75
2022/06/17 03:44:34;;;;;;;5.90;2.40;;;;;;;14.49;57.32;100927.62;108033;1282;23085;-75
2022/06/17 03:47:24;;;;;;;3.80;2.20;;;;;;;14.53;57.39;100932.92;108050;1278;21998;-75
2022/06/17 03:50:09;;;;;;;4.40;2.50;;;;;;;14.58;57.52;100938.44;108406;1276;22000;-76
2022/06/17 03:53:20;;;;;;;3.60;1.90;;;;;;;14.62;57.52;100941.16;108377;1276;22445;-77
2022/06/17 03:55:54;;;;;;;2.70;1.70;;;;;;;14.60;57.43;100947.63;108079;1282;22938;-75
2022/06/17 03:58:32;;;;;;;4.80;2.20;;;;;;;14.57;57.45;100949.67;108030;1282;22090;-75
2022/06/17 04:01:25;;;;;;;3.60;2.10;;;;;;;14.57;57.58;100952.70;108417;1274;23074;-75
2022/06/17 04:04:15;;;;;;;5.20;2.60;;;;;;;14.61;57.84;100956.68;108517;1273;22769;-75
2022/06/17 04:06:52;;;;;;;3.30;2.00;;;;;;;14.67;57.92;100957.52;108523;1276;22001;-75
2022/06/17 04:09:33;;;;;;;2.70;1.90;;;;;;;14.73;57.84;100958.33;108462;1274;21993;-77
2022/06/17 04:12:11;;;;;;;4.00;2.00;;;;;;;14.81;57.93;100962.27;108446;1273;21994;-75
2022/06/17 04:15:22;;;;;;;2.60;2.00;;;;;;;14.90;57.83;100968.66;108311;1276;22685;-74
2022/06/17 04:18:00;;;;;;;5.40;2.20;;;;;;;14.97;57.77;100972.52;108624;1270;22558;-76
2022/06/17 04:20:54;;;;;;;3.20;2.30;;;;;;;15.00;57.57;100973.02;109099;1263;23069;-75
2022/06/17 04:23:33;;;;;;;2.90;1.70;;;;;;;15.03;57.50;100978.06;110337;1257;21966;-75
2022/06/17 04:26:33;;;;;;;4.50;2.10;;;;;;;15.11;57.50;100979.13;110254;1257;22008;-75
2022/06/17 04:29:19;;;;;;;3.50;1.80;;;;;;;15.18;57.35;100986.85;110338;1257;21971;-76
2022/06/17 04:32:10;;;;;;;2.90;1.80;;;;;;;15.25;57.31;100988.27;109723;1261;22203;-75
2022/06/17 04:34:46;;;;;;;3.80;1.80;;;;;;;15.37;57.49;100992.71;109363;1261;22339;-75
2022/06/17 04:37:21;;;;;;;3.50;1.60;;;;;;;15.51;57.50;100990.90;109204;1266;21973;-76
2022/06/17 04:40:50;;;;;;;3.10;1.60;;;;;;;15.67;57.35;100992.24;109496;1262;23044;-77
2022/06/17 04:43:47;;;;;;;5.00;2.20;;;;;;;15.82;57.10;100992.39;109325;1262;23055;-75
2022/06/17 04:47:08;;;;;;;4.10;1.90;;;;;;;15.96;56.95;100994.02;109358;1261;23693;-76
2022/06/17 04:50:13;;;;;;;8.00;2.30;;;;;;;16.08;56.42;100999.64;109450;1263;23769;-76
2022/06/17 04:52:50;;;;;;;6.70;2.60;;;;;;;16.17;56.24;100997.84;109573;1258;21983;-76
2022/06/17 04:55:53;;;;;;;3.90;2.50;;;;;;;16.29;56.11;101000.80;109625;1250;23826;-76
2022/06/17 04:58:50;;;;;;;4.10;2.20;;;;;;;16.43;55.97;100996.92;110292;1256;22490;-75
2022/06/17 05:01:26;;;;;;;3.90;2.00;;;;;;;16.58;55.84;100994.72;110297;1258;23058;-75
2022/06/17 05:04:07;;;;;;;4.80;2.60;;;;;;;16.71;55.69;100996.58;109872;1261;22941;-76
2022/06/17 05:06:56;;;;;;;4.60;2.90;;;;;;;16.86;55.40;101000.98;109139;1263;23060;-77
2022/06/17 05:10:09;;;;;;;5.60;2.50;;;;;;;17.01;55.38;100998.92;109275;1264;24293;-76
2022/06/17 05:13:09;;;;;;;6.80;2.70;;;;;;;17.20;55.17;101005.42;108951;1267;24325;-76
2022/06/17 05:15:47;;;;;;;5.00;2.30;;;;;;;17.39;54.69;101000.53;109153;1265;21971;-76
2022/06/17 05:18:50;;;;;;;6.00;2.30;;;;;;;17.55;54.07;100998.40;108861;1270;22755;-76
2022/06/17 05:21:26;;;;;;;2.80;1.60;;;;;;;17.69;53.87;100997.03;108803;1265;21998;-75
2022/06/17 05:24:14;;;;;;;4.60;2.10;;;;;;;17.84;53.87;100997.86;109288;1264;21942;-77
2022/06/17 05:26:44;;;;;;;3.70;1.70;;;;;;;18.03;53.57;100999.73;109387;1263;21980;-77
2022/06/17 05:29:25;;;;;;;3.80;1.60;;;;;;;18.20;53.21;100997.98;108937;1270;22165;-75
2022/06/17 05:32:12;;;;;;;5.20;2.50;;;;;;;18.36;52.69;100999.23;108770;1273;23081;-76
2022/06/17 05:34:53;;;;;;;3.80;1.90;;;;;;;18.56;52.55;101001.24;108454;1278;21994;-76
2022/06/17 05:37:23;;;;;;;5.20;1.70;;;;;;;18.78;52.07;100999.42;108044;1284;22018;-75
2022/06/17 05:40:08;;;;;;;4.20;1.50;;;;;;;19.02;51.87;101002.76;108009;1284;21998;-76
2022/06/17 05:42:41;;;;;;;3.70;1.60;;;;;;;19.26;51.14;101004.49;108059;1283;22009;-76
2022/06/17 05:45:25;;;;;;;5.10;1.70;;;;;;;19.50;50.60;101003.79;108036;1283;21984;-76
2022/06/17 05:48:09;;;;;;;5.50;1.50;;;;;;;19.76;50.21;101000.21;108283;1278;21996;-76
2022/06/17 05:51:10;;;;;;;5.20;2.00;;;;;;;20.11;50.30;100999.92;108493;1275;22263;-77
2022/06/17 05:54:10;;;;;;;4.70;2.30;;;;;;;20.64;50.05;100994.42;108798;1272;22024;-76
2022/06/17 05:56:48;;;;;;;118.30;10.00;;;;;;;21.15;49.11;100994.16;110038;1251;23764;-76
2022/06/17 05:59:25;;;;;;;14.50;3.00;;;;;;;21.64;48.28;100991.24;110440;1253;22072;-77
2022/06/17 06:01:58;;;;;;;6.50;2.50;;;;;;;22.07;46.86;100991.46;110333;1257;23605;-77
2022/06/17 06:04:47;;;;;;;12.70;2.20;;;;;;;22.53;46.06;100989.77;109970;1257;23962;-78
2022/06/17 06:07:18;;;;;;;5.30;1.70;;;;;;;22.87;44.62;100990.29;110204;1256;21962;-78
2022/06/17 06:10:03;;;;;;;10.90;2.50;;;;;;;23.17;43.67;100993.20;110212;1256;23090;-76
2022/06/17 06:12:56;;;;;;;3.60;1.80;;;;;;;23.49;43.31;101000.36;109709;1260;23039;-77
2022/06/17 06:15:45;;;;;;;5.30;1.70;;;;;;;23.80;42.18;100995.94;109447;1262;21968;-76
2022/06/17 06:18:38;;;;;;;2.20;1.50;;;;;;;24.22;41.72;100996.30;109807;1260;21978;-77
2022/06/17 06:21:17;;;;;;;2.90;2.00;;;;;;;24.52;40.42;100994.15;108021;1260;2331329;-74
2022/06/17 06:23:55;;;;;;;7.10;2.40;;;;;;;24.61;39.44;100994.52;109750;1260;21995;-76
2022/06/17 06:26:40;;;;;;;8.70;2.20;;;;;;;24.67;39.25;100991.15;109935;1256;23029;-77
2022/06/17 06:29:29;;;;;;;3.70;2.10;;;;;;;24.90;39.28;100990.64;110363;1256;21985;-77
2022/06/17 06:31:59;;;;;;;5.30;2.30;;;;;;;25.15;39.16;100994.70;110577;1250;24290;-77
2022/06/17 06:34:47;;;;;;;5.00;1.50;;;;;;;25.51;38.27;100997.95;110638;1250;22486;-77
2022/06/17 06:37:22;;;;;;;3.50;1.80;;;;;;;25.82;37.78;100993.27;110294;1257;22750;-78
2022/06/17 06:39:52;;;;;;;4.20;1.30;;;;;;;26.05;36.51;100991.66;109813;1257;22292;-77
2022/06/17 06:42:23;;;;;;;5.80;1.60;;;;;;;26.19;36.62;100988.89;109163;1264;24242;-77
2022/06/17 06:45:34;;;;;;;3.60;2.10;;;;;;;26.41;36.18;100988.60;108742;1270;23693;-77
2022/06/17 06:48:12;;;;;;;4.20;1.40;;;;;;;26.58;36.09;100987.73;108735;1270;23595;-77
2022/06/17 06:50:43;;;;;;;4.60;1.20;;;;;;;26.80;35.64;100990.88;108728;1270;22004;-77
2022/06/17 06:53:15;;;;;;;2.20;1.00;;;;;;;26.99;34.95;100994.85;108584;1270;22039;-78
2022/06/17 06:55:48;;;;;;;3.10;1.30;;;;;;;27.05;34.41;100995.22;108752;1270;21985;-78
2022/06/17 06:58:24;;;;;;;3.30;1.50;;;;;;;27.13;34.07;100993.51;108616;1270;21999;-78
2022/06/17 07:00:57;;;;;;;5.00;1.60;;;;;;;27.15;33.67;100992.77;108676;1272;21995;-78
2022/06/17 07:03:29;;;;;;;9.00;2.30;;;;;;;27.28;34.44;100995.49;109179;1264;22836;-78
2022/06/17 07:06:04;;;;;;;4.70;1.30;;;;;;;27.59;33.86;101002.52;109388;1264;24507;-78
2022/06/17 07:08:36;;;;;;;4.60;1.50;;;;;;;27.74;32.88;101005.58;109078;1263;22084;-76
2022/06/17 07:11:07;;;;;;;3.20;1.10;;;;;;;27.66;32.30;101005.05;109621;1264;22004;-78
2022/06/17 07:13:44;;;;;;;6.70;1.60;;;;;;;27.42;32.02;101008.25;109099;1267;21980;-77
2022/06/17 07:16:14;;;;;;;2.70;1.30;;;;;;;27.00;32.23;101008.66;108953;1267;21988;-76
2022/06/17 07:18:44;;;;;;;3.30;1.50;;;;;;;26.70;33.45;101009.45;109332;1260;21973;-77
2022/06/17 07:21:19;;;;;;;4.80;1.30;;;;;;;26.61;34.18;101011.73;109448;1259;22815;-78
2022/06/17 07:23:56;;;;;;;4.00;2.10;;;;;;;26.55;33.87;101015.19;109956;1258;22741;-79
2022/06/17 07:26:31;;;;;;;2.70;1.50;;;;;;;26.56;34.35;101018.67;109909;1260;22037;-78
2022/06/17 07:29:02;;;;;;;8.50;1.60;;;;;;;26.75;34.25;101018.60;110024;1259;21983;-81
2022/06/17 07:31:32;;;;;;;2.50;1.00;;;;;;;26.93;33.95;101016.56;109287;1261;22684;-79
2022/06/17 07:34:01;;;;;;;5.20;2.00;;;;;;;27.05;33.26;101016.64;109337;1261;22156;-79
2022/06/17 07:42:07;;;;;;;5.30;2.80;;;;;;;25.82;33.25;101027.55;109100;1267;22772;-79
2022/06/17 07:44:39;;;;;;;5.70;2.00;;;;;;;25.59;35.15;101027.37;109039;1267;23695;-79
2022/06/17 07:47:14;;;;;;;6.90;1.70;;;;;;;25.76;35.67;101025.70;109575;1260;21986;-79
2022/06/17 07:49:45;;;;;;;4.90;1.40;;;;;;;25.97;35.64;101024.89;109589;1261;22408;-78
2022/06/17 07:52:15;;;;;;;3.60;1.90;;;;;;;26.24;35.24;101022.08;109866;1260;21976;-78
2022/06/17 07:54:45;;;;;;;4.00;1.70;;;;;;;26.20;34.22;101026.11;109958;1257;22029;-79
2022/06/17 07:57:16;;;;;;;4.00;1.60;;;;;;;25.99;34.30;101031.73;110173;1256;23702;-79
2022/06/17 07:59:46;;;;;;;2.60;1.30;;;;;;;25.98;35.20;101032.48;110472;1256;21997;-79
2022/06/17 08:02:16;;;;;;;3.60;1.70;;;;;;;26.18;35.60;101029.55;110318;1256;22083;-79
2022/06/17 08:04:46;;;;;;;2.90;1.20;;;;;;;26.30;34.88;101033.02;110412;1256;21973;-80
2022/06/17 08:07:20;;;;;;;4.30;1.30;;;;;;;26.24;34.24;101026.67;110185;1256;21946;-80
2022/06/17 08:09:49;;;;;;;3.70;1.60;;;;;;;25.94;34.09;101032.59;110511;1258;21999;-79
2022/06/17 08:12:20;;;;;;;5.90;1.60;;;;;;;25.57;34.29;101030.65;110048;1259;21981;-78
2022/06/17 08:14:54;;;;;;;3.80;1.30;;;;;;;25.48;35.38;101026.10;110666;1256;23596;-79
2022/06/17 08:17:24;;;;;;;5.10;2.80;;;;;;;25.66;35.88;101023.41;110229;1257;21981;-79
2022/06/17 08:19:58;;;;;;;3.30;1.90;;;;;;;25.85;35.25;101027.12;110627;1259;22354;-80
2022/06/17 08:22:27;;;;;;;3.80;1.30;;;;;;;25.89;34.73;101032.48;110585;1250;21934;-79
2022/06/17 08:24:56;;;;;;;6.60;1.40;;;;;;;25.99;34.51;101033.14;110679;1250;22020;-79
2022/06/17 08:27:26;;;;;;;5.50;1.40;;;;;;;26.03;34.53;101030.42;110575;1250;23018;-81
2022/06/17 08:29:55;;;;;;;3.40;1.10;;;;;;;26.10;34.59;101030.48;110692;1250;23134;-79
2022/06/17 08:32:45;;;;;;;4.40;1.50;;;;;;;26.44;34.74;101025.15;110117;1258;23686;-80
2022/06/17 08:35:35;;;;;;;5.20;2.20;;;;;;;26.75;33.45;101033.51;110758;1256;22502;-79
2022/06/17 08:38:16;;;;;;;11.40;2.20;;;;;;;26.76;33.16;101033.46;110756;1256;22036;-77
2022/06/17 08:40:54;;;;;;;6.00;1.80;;;;;;;26.56;32.60;101036.33;110748;1256;23052;-79
2022/06/17 08:44:15;;;;;;;4.50;1.60;;;;;;;26.16;33.21;101033.85;110424;1257;22582;-77
2022/06/17 08:46:54;;;;;;;3.60;1.10;;;;;;;26.07;34.13;101034.04;109776;1262;22002;-79
2022/06/17 08:50:00;;;;;;;3.30;0.90;;;;;;;26.15;34.27;101033.52;109703;1262;21976;-79
2022/06/17 08:52:50;;;;;;;7.30;3.50;;;;;;;26.48;34.52;101035.55;110160;1258;22279;-78
2022/06/17 08:55:43;;;;;;;7.90;4.70;;;;;;;26.82;33.39;101035.13;110292;1258;23141;-78
2022/06/17 08:58:49;;;;;;;4.40;2.10;;;;;;;26.71;32.04;101040.63;110283;1258;21970;-79
2022/06/17 09:02:08;;;;;;;10.30;1.40;;;;;;;26.28;32.29;101041.41;110216;1259;21985;-79
2022/06/17 09:05:13;;;;;;;5.80;1.70;;;;;;;26.20;33.59;101044.73;109722;1258;21988;-78
2022/06/17 09:07:57;;;;;;;5.70;3.30;;;;;;;26.28;33.05;101041.52;110455;1258;22013;-78
2022/06/17 09:10:57;;;;;;;7.60;3.70;;;;;;;26.09;33.18;101036.86;110333;1258;21944;-78
2022/06/17 09:13:57;;;;;;;4.40;1.40;;;;;;;25.83;33.24;101044.36;109434;1267;23830;-78
2022/06/17 09:17:03;;;;;;;8.80;2.30;;;;;;;25.73;34.00;101046.12;108917;1270;22055;-78
2022/06/17 09:19:38;;;;;;;3.40;1.40;;;;;;;26.06;34.37;101049.83;108639;1276;21997;-77
2022/06/17 09:22:18;;;;;;;15.70;5.60;;;;;;;26.49;33.72;101046.60;108650;1273;22015;-75
2022/06/17 09:24:48;;;;;;;5.50;1.70;;;;;;;26.87;32.75;101046.13;108711;1276;23815;-78
2022/06/17 09:27:30;;;;;;;10.60;5.20;;;;;;;27.10;32.19;101046.14;108506;1279;21995;-78
2022/06/17 09:30:04;;;;;;;3.60;1.60;;;;;;;27.21;31.34;101050.46;108393;1279;22091;-77
2022/06/17 09:32:48;;;;;;;7.40;4.70;;;;;;;27.07;31.01;101053.66;108417;1279;23592;-78
2022/06/17 09:35:43;;;;;;;7.20;5.20;;;;;;;26.68;31.22;101049.92;108405;1276;24214;-78
2022/06/17 09:38:31;;;;;;;8.30;2.70;;;;;;;26.20;31.98;101053.06;108567;1276;21993;-79
2022/06/17 09:41:21;;;;;;;5.40;1.80;;;;;;;25.74;33.01;101053.34;108613;1276;22064;-79
2022/06/17 09:43:56;;;;;;;3.80;1.40;;;;;;;25.46;33.83;101046.64;108559;1275;23636;-77
2022/06/17 09:46:38;;;;;;;6.80;1.50;;;;;;;25.34;34.36;101048.20;108790;1270;22760;-74
2022/06/17 09:49:35;;;;;;;4.30;1.90;;;;;;;25.46;35.13;101051.17;108927;1267;23797;-75
2022/06/17 09:52:17;;;;;;;6.80;1.60;;;;;;;25.69;35.21;101051.33;109412;1260;22036;-80
2022/06/17 09:55:01;;;;;;;6.80;1.70;;;;;;;26.01;34.52;101049.89;109802;1261;23078;-74
2022/06/17 09:58:22;;;;;;;5.60;1.50;;;;;;;26.27;34.24;101050.92;110462;1253;23570;-76
2022/06/17 10:00:56;;;;;;;9.70;2.70;;;;;;;26.44;33.82;101049.22;110641;1253;23829;-75
2022/06/17 10:03:34;;;;;;;8.40;2.30;;;;;;;26.52;33.63;101053.63;110605;1251;22109;-77
2022/06/17 10:06:44;;;;;;;10.60;1.80;;;;;;;26.49;33.69;101051.17;109789;1258;22031;-72
2022/06/17 10:09:36;;;;;;;7.90;1.50;;;;;;;26.45;33.34;101054.90;109573;1263;21987;-75
2022/06/17 10:13:05;;;;;;;13.70;1.70;;;;;;;26.27;32.99;101052.66;109634;1263;23047;-77
2022/06/17 10:19:15;;;;;;;8.70;2.60;;;;;;;25.83;34.83;101052.96;108819;1270;22922;-76
2022/06/17 10:22:03;;;;;;;5.10;1.40;;;;;;;26.09;34.38;101052.08;108566;1275;21969;-76
2022/06/17 10:24:49;;;;;;;4.60;2.00;;;;;;;26.20;33.93;101052.69;108420;1275;23157;-75
2022/06/17 10:28:10;;;;;;;11.40;5.50;;;;;;;26.22;33.74;101059.98;108436;1275;23020;-76
2022/06/17 10:31:08;;;;;;;;;;;;;;;26.24;33.61;101058.21;108785;1274;21987;-77
2022/06/17 10:33:40;;;;;;;6.90;2.00;;;;;;;26.11;33.36;101059.97;108713;1278;22789;-77
2022/06/17 10:36:09;;;;;;;7.90;2.60;;;;;;;26.03;33.38;101059.66;108346;1279;23036;-73
2022/06/17 10:38:48;;;;;;;4.20;1.40;;;;;;;26.09;33.64;101060.91;108311;1282;22053;-75
2022/06/17 10:41:18;;;;;;;3.70;1.70;;;;;;;26.10;33.42;101058.97;108214;1279;22203;-72
2022/06/17 10:43:53;;;;;;;16.40;2.50;;;;;;;26.08;33.38;101060.80;108533;1275;21988;-76
2022/06/17 10:46:36;;;;;;;5.60;1.30;;;;;;;26.03;33.08;101064.48;109018;1270;21993;-77
2022/06/17 10:49:34;;;;;;;3.60;1.30;;;;;;;25.90;32.81;101054.26;108910;1270;21995;-77
2022/06/17 10:52:22;;;;;;;3.90;1.20;;;;;;;25.89;33.22;101051.65;109579;1258;21983;-77
2022/06/17 10:54:53;;;;;;;3.30;1.40;;;;;;;25.88;32.83;101052.45;109457;1267;22718;-76
2022/06/17 10:57:30;;;;;;;6.50;1.60;;;;;;;25.77;32.78;101049.59;109868;1259;24536;-77
2022/06/17 11:00:21;;;;;;;4.70;1.30;;;;;;;25.61;32.92;101043.74;110188;1258;23080;-78
2022/06/17 11:02:53;;;;;;;4.80;1.60;;;;;;;25.45;33.10;101039.00;110319;1259;22051;-78
2022/06/17 11:05:33;;;;;;;5.50;2.30;;;;;;;25.47;33.48;101036.48;110006;1258;21970;-77
2022/06/17 11:08:18;;;;;;;3.00;1.40;;;;;;;25.52;33.09;101035.89;109298;1262;24477;-79
2022/06/17 11:10:56;;;;;;;7.30;1.90;;;;;;;25.57;32.98;101033.04;109822;1261;22045;-76
2022/06/17 11:13:26;;;;;;;5.40;1.30;;;;;;;25.68;32.97;101039.13;110266;1253;22409;-78
2022/06/17 11:15:58;;;;;;;6.10;1.50;;;;;;;25.69;32.85;101043.26;110269;1254;23033;-77
2022/06/17 11:18:33;;;;;;;2.90;0.90;;;;;;;25.58;32.90;101041.98;110590;1253;22990;-79
2022/06/17 11:21:09;;;;;;;7.10;1.40;;;;;;;25.47;33.47;101043.94;109584;1262;21987;-79
2022/06/17 11:23:49;;;;;;;4.10;1.50;;;;;;;25.34;33.09;101043.55;109269;1267;23796;-78
2022/06/17 11:26:30;;;;;;;2.90;1.40;;;;;;;25.19;33.11;101042.89;109261;1266;21947;-78
2022/06/17 11:29:21;;;;;;;5.20;1.30;;;;;;;25.11;33.30;101042.97;108945;1273;21995;-76
2022/06/17 11:31:56;;;;;;;4.70;1.70;;;;;;;25.16;33.76;101036.77;108466;1274;23597;-72
2022/06/17 11:34:28;;;;;;;7.10;1.10;;;;;;;25.25;33.87;101036.08;108523;1276;21987;-73
2022/06/17 11:37:30;;;;;;;4.20;2.20;;;;;;;25.31;33.56;101035.17;108347;1276;21961;-73
2022/06/17 11:40:14;;;;;;;2.50;1.10;;;;;;;25.23;33.12;101038.75;108643;1270;21994;-74
2022/06/17 11:43:09;;;;;;;3.20;1.20;;;;;;;25.10;33.12;101037.79;108639;1273;22069;-73
2022/06/17 11:45:44;;;;;;;4.50;1.30;;;;;;;25.04;33.57;101034.42;108586;1271;22001;-75
2022/06/17 11:48:22;;;;;;;10.50;1.40;;;;;;;25.12;33.76;101035.70;109009;1267;23635;-77
2022/06/17 11:51:17;;;;;;;3.10;0.80;;;;;;;25.15;33.47;101042.30;109430;1257;21978;-76
2022/06/17 11:53:59;;;;;;;9.10;1.80;;;;;;;25.13;33.19;101044.20;109946;1256;23087;-74
2022/06/17 11:56:39;;;;;;;3.20;1.80;;;;;;;25.12;33.50;101042.82;110137;1256;23003;-74
2022/06/17 11:59:31;;;;;;;3.20;1.40;;;;;;;25.17;33.51;101045.29;110240;1256;22800;-78
2022/06/17 12:02:07;;;;;;;13.60;2.40;;;;;;;25.21;33.32;101042.72;110113;1256;23057;-76
2022/06/17 12:04:44;;;;;;;2.90;1.10;;;;;;;25.19;33.14;101047.34;110314;1256;22534;-76
2022/06/17 12:07:39;;;;;;;4.60;1.30;;;;;;;25.17;33.75;101041.95;110461;1250;21963;-76
2022/06/17 12:10:49;;;;;;;4.50;1.50;;;;;;;25.29;33.79;101043.58;111034;1250;21980;-78
2022/06/17 12:13:32;;;;;;;4.10;2.00;;;;;;;25.40;33.28;101038.98;110723;1250;21969;-77
2022/06/17 12:16:11;;;;;;;2.90;1.20;;;;;;;25.46;33.35;101034.40;110759;1250;22425;-78
2022/06/17 12:18:51;;;;;;;11.70;1.90;;;;;;;25.55;33.52;101033.48;110679;1250;21956;-75
2022/06/17 12:21:36;;;;;;;6.00;1.70;;;;;;;25.59;33.21;101029.06;110751;1250;21953;-76
2022/06/17 12:24:44;;;;;;;3.60;1.50;;;;;;;25.54;32.93;101030.30;110642;1250;21990;-79
2022/06/17 12:27:29;;;;;;;4.60;1.10;;;;;;;25.45;33.00;101034.39;110746;1250;23664;-75
2022/06/17 12:30:34;;;;;;;4.60;1.50;;;;;;;25.37;33.24;101027.69;110716;1250;23020;-76
2022/06/17 12:33:18;;;;;;;4.70;1.60;;;;;;;25.35;33.24;101018.89;110733;1250;23733;-75
2022/06/17 12:36:25;;;;;;;7.70;1.20;;;;;;;25.35;32.94;101014.89;110818;1250;21961;-76
2022/06/17 12:40:05;;;;;;;11.70;4.40;;;;;;;25.39;32.80;101018.13;110679;1251;22063;-76
2022/06/17 12:42:45;;;;;;;5.30;2.10;;;;;;;25.42;32.97;101017.80;110851;1250;22000;-78
2022/06/17 12:45:24;;;;;;;6.10;2.10;;;;;;;25.46;33.12;101019.15;110777;1250;21961;-75